sensor_id;sensor_type;location;lat;lon;timestamp;pressure;altitude;pressure_sealevel;temperature;humidity
60589;BME280;46421;48.610;9.334;2023-03-15T00:02:05;97601.22;;;3.50;96.08
60589;BME280;46421;48.610;9.334;2023-03-15T00:04:31;97602.84;;;3.71;96.36
60589;BME280;46421;48.610;9.334;2023-03-15T00:06:57;97608.19;;;3.79;94.44
60589;BME280;46421;48.610;9.334;2023-03-15T00:09:23;97616.59;;;3.45;94.85
60589;BME280;46421;48.610;9.334;2023-03-15T00:11:50;97610.19;;;3.67;94.95
60589;BME280;46421;48.610;9.334;2023-03-15T00:14:16;97616.44;;;3.46;94.91
60589;BME280;46421;48.610;9.334;2023-03-15T00:16:41;97618.59;;;3.71;95.29
60589;BME280;46421;48.610;9.334;2023-03-15T00:19:07;97627.72;;;3.67;94.21
60589;BME280;46421;48.610;9.334;2023-03-15T00:21:33;97635.88;;;3.73;94.31
60589;BME280;46421;48.610;9.334;2023-03-15T00:23:59;97638.63;;;3.24;94.93
60589;BME280;46421;48.610;9.334;2023-03-15T00:26:25;97634.97;;;3.64;93.62
60589;BME280;46421;48.610;9.334;2023-03-15T00:28:50;97649.81;;;3.36;95.02
60589;BME280;46421;48.610;9.334;2023-03-15T00:31:20;97648.56;;;3.01;95.46
60589;BME280;46421;48.610;9.334;2023-03-15T00:33:47;97652.97;;;3.40;96.73
60589;BME280;46421;48.610;9.334;2023-03-15T00:36:13;97672.34;;;3.39;96.09
60589;BME280;46421;48.610;9.334;2023-03-15T00:38:40;97691.66;;;3.67;94.73
60589;BME280;46421;48.610;9.334;2023-03-15T00:41:13;97689.16;;;3.75;93.71
60589;BME280;46421;48.610;9.334;2023-03-15T00:43:40;97689.97;;;3.76;92.34
60589;BME280;46421;48.610;9.334;2023-03-15T00:46:06;97694.84;;;3.71;92.64
60589;BME280;46421;48.610;9.334;2023-03-15T00:48:32;97700.84;;;3.43;94.91
60589;BME280;46421;48.610;9.334;2023-03-15T00:51:12;97702.97;;;3.87;92.44
60589;BME280;46421;48.610;9.334;2023-03-15T00:53:41;97708.09;;;3.89;92.29
60589;BME280;46421;48.610;9.334;2023-03-15T00:56:09;97716.56;;;3.83;91.27
60589;BME280;46421;48.610;9.334;2023-03-15T00:58:36;97709.41;;;3.26;94.57
60589;BME280;46421;48.610;9.334;2023-03-15T01:01:10;97725.16;;;3.65;93.72
60589;BME280;46421;48.610;9.334;2023-03-15T01:03:36;97734.03;;;3.54;92.36
60589;BME280;46421;48.610;9.334;2023-03-15T01:06:13;97734.97;;;3.24;94.52
60589;BME280;46421;48.610;9.334;2023-03-15T01:08:39;97732.06;;;3.66;93.98
60589;BME280;46421;48.610;9.334;2023-03-15T01:11:09;97738.44;;;3.44;92.10
60589;BME280;46421;48.610;9.334;2023-03-15T01:13:35;97740.47;;;3.99;92.88
60589;BME280;46421;48.610;9.334;2023-03-15T01:16:01;97745.22;;;3.66;93.55
60589;BME280;46421;48.610;9.334;2023-03-15T01:18:27;97749.66;;;3.46;92.00
60589;BME280;46421;48.610;9.334;2023-03-15T01:20:52;97752.00;;;3.10;93.80
60589;BME280;46421;48.610;9.334;2023-03-15T01:23:18;97754.31;;;2.93;96.69
60589;BME280;46421;48.610;9.334;2023-03-15T01:25:43;97744.97;;;3.30;95.04
60589;BME280;46421;48.610;9.334;2023-03-15T01:28:08;97753.38;;;3.24;95.08
60589;BME280;46421;48.610;9.334;2023-03-15T01:30:34;97755.31;;;3.51;92.35
60589;BME280;46421;48.610;9.334;2023-03-15T01:32:59;97765.50;;;2.95;96.69
60589;BME280;46421;48.610;9.334;2023-03-15T01:35:25;97763.56;;;2.97;94.88
60589;BME280;46421;48.610;9.334;2023-03-15T01:37:50;97767.09;;;2.67;97.73
60589;BME280;46421;48.610;9.334;2023-03-15T01:40:17;97774.53;;;3.22;96.21
60589;BME280;46421;48.610;9.334;2023-03-15T01:43:10;97770.22;;;3.02;98.33
60589;BME280;46421;48.610;9.334;2023-03-15T01:48:15;97798.72;;;3.26;97.08
60589;BME280;46421;48.610;9.334;2023-03-15T01:50:41;97790.69;;;3.17;94.60
60589;BME280;46421;48.610;9.334;2023-03-15T01:53:07;97788.38;;;3.24;94.09
60589;BME280;46421;48.610;9.334;2023-03-15T01:55:32;97777.97;;;3.13;94.29
60589;BME280;46421;48.610;9.334;2023-03-15T01:57:59;97788.69;;;2.49;97.15
60589;BME280;46421;48.610;9.334;2023-03-15T02:00:25;97796.88;;;2.56;95.87
60589;BME280;46421;48.610;9.334;2023-03-15T02:05:23;97802.28;;;2.33;95.99
60589;BME280;46421;48.610;9.334;2023-03-15T02:07:50;97799.53;;;2.35;96.94
60589;BME280;46421;48.610;9.334;2023-03-15T02:10:29;97796.19;;;2.02;95.69
60589;BME280;46421;48.610;9.334;2023-03-15T02:12:57;97801.59;;;2.10;97.95
60589;BME280;46421;48.610;9.334;2023-03-15T02:15:22;97795.66;;;1.87;96.62
60589;BME280;46421;48.610;9.334;2023-03-15T02:17:48;97800.81;;;1.77;98.70
60589;BME280;46421;48.610;9.334;2023-03-15T02:23:14;97819.69;;;2.34;97.86
60589;BME280;46421;48.610;9.334;2023-03-15T02:28:25;97820.31;;;2.48;94.73
60589;BME280;46421;48.610;9.334;2023-03-15T02:30:50;97819.63;;;2.46;95.39
60589;BME280;46421;48.610;9.334;2023-03-15T02:33:32;97830.78;;;1.96;97.75
60589;BME280;46421;48.610;9.334;2023-03-15T02:38:33;97837.59;;;1.87;97.03
60589;BME280;46421;48.610;9.334;2023-03-15T02:40:59;97848.06;;;1.87;97.65
60589;BME280;46421;48.610;9.334;2023-03-15T02:43:27;97846.81;;;1.81;98.27
60589;BME280;46421;48.610;9.334;2023-03-15T02:45:54;97844.09;;;1.71;97.41
60589;BME280;46421;48.610;9.334;2023-03-15T02:48:20;97848.00;;;1.77;97.43
60589;BME280;46421;48.610;9.334;2023-03-15T02:50:45;97847.94;;;1.67;97.20
60589;BME280;46421;48.610;9.334;2023-03-15T02:53:11;97849.75;;;1.55;98.72
60589;BME280;46421;48.610;9.334;2023-03-15T02:55:36;97851.00;;;1.40;98.78
60589;BME280;46421;48.610;9.334;2023-03-15T02:58:02;97856.81;;;1.44;98.19
60589;BME280;46421;48.610;9.334;2023-03-15T03:00:28;97856.88;;;1.32;98.56
60589;BME280;46421;48.610;9.334;2023-03-15T03:02:53;97872.91;;;1.39;97.55
60589;BME280;46421;48.610;9.334;2023-03-15T03:05:19;97868.97;;;1.33;98.19
60589;BME280;46421;48.610;9.334;2023-03-15T03:07:45;97879.94;;;1.38;99.38
60589;BME280;46421;48.610;9.334;2023-03-15T03:10:13;97880.38;;;1.55;97.61
60589;BME280;46421;48.610;9.334;2023-03-15T03:12:39;97861.97;;;1.22;97.83
60589;BME280;46421;48.610;9.334;2023-03-15T03:15:05;97893.28;;;1.35;97.06
60589;BME280;46421;48.610;9.334;2023-03-15T03:17:30;97898.38;;;1.37;98.27
60589;BME280;46421;48.610;9.334;2023-03-15T03:19:56;97893.53;;;1.21;98.48
60589;BME280;46421;48.610;9.334;2023-03-15T03:22:21;97899.81;;;1.30;99.07
60589;BME280;46421;48.610;9.334;2023-03-15T03:24:50;97898.06;;;1.30;97.95
60589;BME280;46421;48.610;9.334;2023-03-15T03:27:16;97909.13;;;1.34;98.10
60589;BME280;46421;48.610;9.334;2023-03-15T03:29:42;97913.53;;;1.22;96.80
60589;BME280;46421;48.610;9.334;2023-03-15T03:32:08;97923.06;;;1.23;96.77
60589;BME280;46421;48.610;9.334;2023-03-15T03:34:34;97930.16;;;1.44;98.25
60589;BME280;46421;48.610;9.334;2023-03-15T03:36:59;97917.53;;;1.60;97.68
60589;BME280;46421;48.610;9.334;2023-03-15T03:39:25;97932.50;;;1.69;95.22
60589;BME280;46421;48.610;9.334;2023-03-15T03:41:50;97932.03;;;1.64;93.72
60589;BME280;46421;48.610;9.334;2023-03-15T03:44:16;97934.31;;;1.46;95.07
60589;BME280;46421;48.610;9.334;2023-03-15T03:46:41;97941.97;;;1.49;95.64
60589;BME280;46421;48.610;9.334;2023-03-15T03:49:07;97943.75;;;1.26;95.19
60589;BME280;46421;48.610;9.334;2023-03-15T03:51:32;97947.47;;;1.12;95.92
60589;BME280;46421;48.610;9.334;2023-03-15T03:54:02;97949.47;;;1.42;95.53
60589;BME280;46421;48.610;9.334;2023-03-15T03:56:28;97961.94;;;1.62;94.46
60589;BME280;46421;48.610;9.334;2023-03-15T03:58:54;97961.38;;;1.47;96.07
60589;BME280;46421;48.610;9.334;2023-03-15T04:01:19;97964.59;;;1.39;95.22
60589;BME280;46421;48.610;9.334;2023-03-15T04:03:46;97973.38;;;1.38;94.73
60589;BME280;46421;48.610;9.334;2023-03-15T04:06:11;97971.38;;;1.19;94.88
60589;BME280;46421;48.610;9.334;2023-03-15T04:08:37;97965.44;;;1.28;95.36
60589;BME280;46421;48.610;9.334;2023-03-15T04:11:02;97972.19;;;1.31;95.27
60589;BME280;46421;48.610;9.334;2023-03-15T04:13:29;97977.34;;;1.32;93.96
60589;BME280;46421;48.610;9.334;2023-03-15T04:15:55;97968.66;;;1.20;93.82
60589;BME280;46421;48.610;9.334;2023-03-15T04:18:21;97983.97;;;1.25;95.40
60589;BME280;46421;48.610;9.334;2023-03-15T04:20:47;97983.25;;;0.77;96.28
60589;BME280;46421;48.610;9.334;2023-03-15T04:23:15;97980.50;;;0.90;98.45
60589;BME280;46421;48.610;9.334;2023-03-15T04:25:43;97985.53;;;1.16;96.35
60589;BME280;46421;48.610;9.334;2023-03-15T04:28:08;97980.28;;;0.93;96.36
60589;BME280;46421;48.610;9.334;2023-03-15T04:30:38;97995.28;;;1.03;95.94
60589;BME280;46421;48.610;9.334;2023-03-15T04:33:04;97995.31;;;1.25;97.62
60589;BME280;46421;48.610;9.334;2023-03-15T04:35:31;97996.34;;;0.89;97.83
60589;BME280;46421;48.610;9.334;2023-03-15T04:37:57;98003.53;;;1.21;97.84
60589;BME280;46421;48.610;9.334;2023-03-15T04:40:25;98005.13;;;0.88;96.74
60589;BME280;46421;48.610;9.334;2023-03-15T04:42:51;98009.94;;;1.05;98.02
60589;BME280;46421;48.610;9.334;2023-03-15T04:45:19;98011.34;;;1.09;96.18
60589;BME280;46421;48.610;9.334;2023-03-15T04:47:45;98009.22;;;1.15;95.84
60589;BME280;46421;48.610;9.334;2023-03-15T04:50:10;98022.22;;;1.39;93.66
60589;BME280;46421;48.610;9.334;2023-03-15T04:52:37;98019.47;;;1.29;95.41
60589;BME280;46421;48.610;9.334;2023-03-15T04:55:02;98019.47;;;1.29;95.31
60589;BME280;46421;48.610;9.334;2023-03-15T04:57:28;98020.66;;;1.25;95.02
60589;BME280;46421;48.610;9.334;2023-03-15T04:59:53;98028.03;;;1.65;92.22
60589;BME280;46421;48.610;9.334;2023-03-15T05:02:18;98026.59;;;1.04;94.99
60589;BME280;46421;48.610;9.334;2023-03-15T05:04:44;98025.13;;;0.77;97.13
60589;BME280;46421;48.610;9.334;2023-03-15T05:07:09;98035.38;;;0.32;98.71
60589;BME280;46421;48.610;9.334;2023-03-15T05:09:34;98023.47;;;0.88;98.19
60589;BME280;46421;48.610;9.334;2023-03-15T05:12:05;98026.09;;;0.52;97.85
60589;BME280;46421;48.610;9.334;2023-03-15T05:14:31;98025.22;;;0.76;97.33
60589;BME280;46421;48.610;9.334;2023-03-15T05:16:57;98022.25;;;0.81;95.37
60589;BME280;46421;48.610;9.334;2023-03-15T05:19:26;98014.25;;;0.71;96.68
60589;BME280;46421;48.610;9.334;2023-03-15T05:21:52;98018.59;;;1.06;93.88
60589;BME280;46421;48.610;9.334;2023-03-15T05:24:19;98022.91;;;1.30;91.88
60589;BME280;46421;48.610;9.334;2023-03-15T05:26:44;98017.91;;;0.57;94.90
60589;BME280;46421;48.610;9.334;2023-03-15T05:29:11;98020.56;;;0.68;98.22
60589;BME280;46421;48.610;9.334;2023-03-15T05:31:37;98031.97;;;0.67;97.82
60589;BME280;46421;48.610;9.334;2023-03-15T05:34:03;98021.69;;;1.00;95.67
60589;BME280;46421;48.610;9.334;2023-03-15T05:36:29;98027.03;;;0.87;96.38
60589;BME280;46421;48.610;9.334;2023-03-15T05:38:55;98028.50;;;1.25;92.26
60589;BME280;46421;48.610;9.334;2023-03-15T05:41:21;98021.97;;;1.19;90.92
60589;BME280;46421;48.610;9.334;2023-03-15T05:43:46;98036.13;;;1.17;92.44
60589;BME280;46421;48.610;9.334;2023-03-15T05:46:11;98040.78;;;1.24;91.80
60589;BME280;46421;48.610;9.334;2023-03-15T05:48:37;98030.91;;;1.28;92.13
60589;BME280;46421;48.610;9.334;2023-03-15T05:51:02;98040.66;;;1.15;91.40
60589;BME280;46421;48.610;9.334;2023-03-15T05:53:27;98043.06;;;1.29;91.24
60589;BME280;46421;48.610;9.334;2023-03-15T05:55:53;98042.78;;;1.09;91.45
60589;BME280;46421;48.610;9.334;2023-03-15T05:58:18;98037.66;;;0.97;91.72
60589;BME280;46421;48.610;9.334;2023-03-15T06:00:43;98044.66;;;0.96;91.43
60589;BME280;46421;48.610;9.334;2023-03-15T06:03:09;98050.16;;;1.04;92.93
60589;BME280;46421;48.610;9.334;2023-03-15T06:05:34;98049.06;;;0.96;91.83
60589;BME280;46421;48.610;9.334;2023-03-15T06:07:59;98050.75;;;0.97;91.55
60589;BME280;46421;48.610;9.334;2023-03-15T06:10:25;98049.41;;;0.91;91.35
60589;BME280;46421;48.610;9.334;2023-03-15T06:12:50;98044.78;;;1.06;92.54
60589;BME280;46421;48.610;9.334;2023-03-15T06:15:17;98050.31;;;1.37;89.85
60589;BME280;46421;48.610;9.334;2023-03-15T06:17:42;98043.63;;;2.33;85.05
60589;BME280;46421;48.610;9.334;2023-03-15T06:20:08;98046.16;;;3.10;80.29
60589;BME280;46421;48.610;9.334;2023-03-15T06:22:33;98030.53;;;4.11;74.95
60589;BME280;46421;48.610;9.334;2023-03-15T06:24:59;98047.06;;;4.62;71.29
60589;BME280;46421;48.610;9.334;2023-03-15T06:27:24;98058.22;;;5.23;68.36
60589;BME280;46421;48.610;9.334;2023-03-15T06:29:49;98065.00;;;5.73;65.91
60589;BME280;46421;48.610;9.334;2023-03-15T06:32:15;98063.06;;;5.75;66.06
60589;BME280;46421;48.610;9.334;2023-03-15T06:34:40;98076.78;;;6.16;64.18
60589;BME280;46421;48.610;9.334;2023-03-15T06:37:05;98081.03;;;6.45;61.33
60589;BME280;46421;48.610;9.334;2023-03-15T06:39:31;98077.38;;;6.10;63.69
60589;BME280;46421;48.610;9.334;2023-03-15T06:41:59;98088.31;;;6.79;60.26
60589;BME280;46421;48.610;9.334;2023-03-15T06:44:27;98087.13;;;6.92;60.92
60589;BME280;46421;48.610;9.334;2023-03-15T06:46:52;98081.41;;;7.05;58.89
60589;BME280;46421;48.610;9.334;2023-03-15T06:49:17;98087.25;;;7.87;56.43
60589;BME280;46421;48.610;9.334;2023-03-15T06:51:43;98094.78;;;7.48;57.66
60589;BME280;46421;48.610;9.334;2023-03-15T06:54:09;98092.53;;;8.73;54.19
60589;BME280;46421;48.610;9.334;2023-03-15T06:56:35;98097.47;;;8.25;54.17
60589;BME280;46421;48.610;9.334;2023-03-15T06:59:02;98101.66;;;9.12;53.26
60589;BME280;46421;48.610;9.334;2023-03-15T07:01:27;98102.63;;;8.69;52.15
60589;BME280;46421;48.610;9.334;2023-03-15T07:03:53;98105.91;;;8.55;53.07
60589;BME280;46421;48.610;9.334;2023-03-15T07:06:18;98094.03;;;8.33;52.53
60589;BME280;46421;48.610;9.334;2023-03-15T07:08:43;98097.84;;;9.06;50.57
60589;BME280;46421;48.610;9.334;2023-03-15T07:11:09;98087.22;;;9.47;51.60
60589;BME280;46421;48.610;9.334;2023-03-15T07:13:34;98089.19;;;10.18;47.10
60589;BME280;46421;48.610;9.334;2023-03-15T07:15:59;98091.91;;;10.02;48.29
60589;BME280;46421;48.610;9.334;2023-03-15T07:18:25;98092.31;;;10.22;47.65
60589;BME280;46421;48.610;9.334;2023-03-15T07:20:57;98095.81;;;10.54;47.66
60589;BME280;46421;48.610;9.334;2023-03-15T07:23:22;98101.06;;;10.94;46.89
60589;BME280;46421;48.610;9.334;2023-03-15T07:25:48;98098.28;;;10.87;46.04
60589;BME280;46421;48.610;9.334;2023-03-15T07:28:13;98099.69;;;10.35;47.37
60589;BME280;46421;48.610;9.334;2023-03-15T07:30:39;98106.69;;;11.90;44.04
60589;BME280;46421;48.610;9.334;2023-03-15T07:33:04;98093.13;;;11.32;44.81
60589;BME280;46421;48.610;9.334;2023-03-15T07:35:29;98113.78;;;11.45;43.60
60589;BME280;46421;48.610;9.334;2023-03-15T07:37:55;98111.59;;;11.10;44.14
60589;BME280;46421;48.610;9.334;2023-03-15T07:40:20;98108.06;;;11.71;43.73
60589;BME280;46421;48.610;9.334;2023-03-15T07:42:46;98111.44;;;11.80;42.22
60589;BME280;46421;48.610;9.334;2023-03-15T07:45:11;98119.41;;;10.88;45.03
60589;BME280;46421;48.610;9.334;2023-03-15T07:47:37;98113.53;;;11.16;42.80
60589;BME280;46421;48.610;9.334;2023-03-15T07:50:03;98112.84;;;11.76;42.48
60589;BME280;46421;48.610;9.334;2023-03-15T07:52:29;98116.13;;;13.33;41.10
60589;BME280;46421;48.610;9.334;2023-03-15T07:54:55;98109.75;;;13.55;39.31
60589;BME280;46421;48.610;9.334;2023-03-15T07:57:20;98127.44;;;12.91;39.60
60589;BME280;46421;48.610;9.334;2023-03-15T07:59:45;98116.63;;;12.26;40.18
60589;BME280;46421;48.610;9.334;2023-03-15T08:02:12;98114.47;;;13.32;40.17
60589;BME280;46421;48.610;9.334;2023-03-15T08:04:38;98131.69;;;12.19;38.57
60589;BME280;46421;48.610;9.334;2023-03-15T08:07:04;98127.06;;;12.58;38.69
60589;BME280;46421;48.610;9.334;2023-03-15T08:09:29;98119.56;;;12.01;38.53
60589;BME280;46421;48.610;9.334;2023-03-15T08:11:57;98125.06;;;13.68;38.46
60589;BME280;46421;48.610;9.334;2023-03-15T08:14:22;98132.00;;;13.19;37.60
60589;BME280;46421;48.610;9.334;2023-03-15T08:16:49;98130.78;;;14.35;37.12
60589;BME280;46421;48.610;9.334;2023-03-15T08:19:15;98119.53;;;14.05;35.53
60589;BME280;46421;48.610;9.334;2023-03-15T08:21:40;98128.31;;;14.82;34.57
60589;BME280;46421;48.610;9.334;2023-03-15T08:24:12;98129.84;;;12.86;36.58
60589;BME280;46421;48.610;9.334;2023-03-15T08:26:37;98125.16;;;13.88;37.48
60589;BME280;46421;48.610;9.334;2023-03-15T08:29:02;98117.75;;;14.19;36.04
60589;BME280;46421;48.610;9.334;2023-03-15T08:31:28;98126.22;;;13.16;36.33
60589;BME280;46421;48.610;9.334;2023-03-15T08:33:53;98130.28;;;13.55;35.98
60589;BME280;46421;48.610;9.334;2023-03-15T08:36:19;98126.31;;;14.07;34.25
60589;BME280;46421;48.610;9.334;2023-03-15T08:38:44;98128.66;;;13.10;37.60
60589;BME280;46421;48.610;9.334;2023-03-15T08:41:10;98121.03;;;12.19;37.79
60589;BME280;46421;48.610;9.334;2023-03-15T08:43:35;98129.22;;;13.78;37.18
60589;BME280;46421;48.610;9.334;2023-03-15T08:46:00;98120.63;;;13.10;35.20
60589;BME280;46421;48.610;9.334;2023-03-15T08:48:26;98132.63;;;11.20;41.52
60589;BME280;46421;48.610;9.334;2023-03-15T08:50:51;98116.56;;;12.93;36.06
60589;BME280;46421;48.610;9.334;2023-03-15T08:53:16;98122.97;;;14.34;34.52
60589;BME280;46421;48.610;9.334;2023-03-15T08:55:42;98121.38;;;14.46;33.88
60589;BME280;46421;48.610;9.334;2023-03-15T08:58:07;98120.72;;;13.96;32.31
60589;BME280;46421;48.610;9.334;2023-03-15T09:00:33;98125.50;;;15.11;34.13
60589;BME280;46421;48.610;9.334;2023-03-15T09:02:58;98127.72;;;16.15;32.09
60589;BME280;46421;48.610;9.334;2023-03-15T09:05:24;98124.88;;;15.29;30.81
60589;BME280;46421;48.610;9.334;2023-03-15T09:07:50;98123.38;;;14.86;33.28
60589;BME280;46421;48.610;9.334;2023-03-15T09:10:18;98128.69;;;13.60;33.21
60589;BME280;46421;48.610;9.334;2023-03-15T09:12:46;98126.09;;;11.46;36.76
60589;BME280;46421;48.610;9.334;2023-03-15T09:15:12;98129.03;;;11.51;39.47
60589;BME280;46421;48.610;9.334;2023-03-15T09:17:40;98139.69;;;10.81;42.60
60589;BME280;46421;48.610;9.334;2023-03-15T09:20:08;98139.97;;;10.23;41.41
60589;BME280;46421;48.610;9.334;2023-03-15T09:22:40;98147.53;;;9.87;41.07
60589;BME280;46421;48.610;9.334;2023-03-15T09:25:06;98155.31;;;11.54;37.74
60589;BME280;46421;48.610;9.334;2023-03-15T09:27:32;98160.84;;;10.74;39.20
60589;BME280;46421;48.610;9.334;2023-03-15T09:29:58;98157.25;;;10.67;40.52
60589;BME280;46421;48.610;9.334;2023-03-15T09:32:24;98158.03;;;9.47;43.60
60589;BME280;46421;48.610;9.334;2023-03-15T09:34:49;98159.03;;;9.21;44.06
60589;BME280;46421;48.610;9.334;2023-03-15T09:37:15;98168.56;;;10.93;39.41
60589;BME280;46421;48.610;9.334;2023-03-15T09:39:41;98162.44;;;11.15;39.97
60589;BME280;46421;48.610;9.334;2023-03-15T09:42:15;98163.66;;;9.36;41.10
60589;BME280;46421;48.610;9.334;2023-03-15T09:45:05;98161.00;;;9.19;46.52
60589;BME280;46421;48.610;9.334;2023-03-15T09:48:08;98163.00;;;8.15;44.40
60589;BME280;46421;48.610;9.334;2023-03-15T09:50:32;98166.13;;;8.10;45.76
60589;BME280;46421;48.610;9.334;2023-03-15T09:53:09;98157.72;;;7.88;48.38
60589;BME280;46421;48.610;9.334;2023-03-15T09:55:36;98168.28;;;7.62;48.28
60589;BME280;46421;48.610;9.334;2023-03-15T09:58:16;98169.78;;;7.20;49.41
60589;BME280;46421;48.610;9.334;2023-03-15T10:00:46;98167.75;;;6.50;48.13
60589;BME280;46421;48.610;9.334;2023-03-15T10:03:19;98164.47;;;6.66;49.74
60589;BME280;46421;48.610;9.334;2023-03-15T10:06:00;98167.81;;;6.40;50.51
60589;BME280;46421;48.610;9.334;2023-03-15T10:08:29;98167.94;;;6.67;49.21
60589;BME280;46421;48.610;9.334;2023-03-15T10:13:54;98170.31;;;6.88;52.15
60589;BME280;46421;48.610;9.334;2023-03-15T10:16:41;98175.41;;;6.71;50.25
60589;BME280;46421;48.610;9.334;2023-03-15T10:24:42;98173.69;;;6.34;52.96
60589;BME280;46421;48.610;9.334;2023-03-15T10:29:57;98180.31;;;6.38;52.20
60589;BME280;46421;48.610;9.334;2023-03-15T10:32:27;98176.47;;;6.32;52.75
60589;BME280;46421;48.610;9.334;2023-03-15T10:34:56;98172.69;;;6.35;51.85
60589;BME280;46421;48.610;9.334;2023-03-15T10:37:24;98172.66;;;6.17;51.70
60589;BME280;46421;48.610;9.334;2023-03-15T10:39:53;98172.22;;;6.22;51.04
60589;BME280;46421;48.610;9.334;2023-03-15T10:42:27;98164.91;;;6.06;51.50
60589;BME280;46421;48.610;9.334;2023-03-15T10:44:53;98166.13;;;6.39;53.67
60589;BME280;46421;48.610;9.334;2023-03-15T10:47:20;98165.78;;;6.98;51.04
60589;BME280;46421;48.610;9.334;2023-03-15T10:49:46;98165.53;;;7.27;50.94
60589;BME280;46421;48.610;9.334;2023-03-15T10:52:31;98163.84;;;7.63;49.37
60589;BME280;46421;48.610;9.334;2023-03-15T10:55:30;98158.38;;;8.51;49.77
60589;BME280;46421;48.610;9.334;2023-03-15T10:58:00;98166.28;;;8.09;46.89
60589;BME280;46421;48.610;9.334;2023-03-15T11:00:36;98163.69;;;8.25;46.20
60589;BME280;46421;48.610;9.334;2023-03-15T11:03:06;98157.19;;;8.46;45.21
60589;BME280;46421;48.610;9.334;2023-03-15T11:05:42;98154.34;;;13.83;37.84
60589;BME280;46421;48.610;9.334;2023-03-15T11:08:17;98150.91;;;13.39;36.45
60589;BME280;46421;48.610;9.334;2023-03-15T11:10:45;98157.31;;;10.82;40.00
60589;BME280;46421;48.610;9.334;2023-03-15T11:13:23;98147.06;;;9.67;42.39
60589;BME280;46421;48.610;9.334;2023-03-15T11:15:59;98158.28;;;10.10;40.98
60589;BME280;46421;48.610;9.334;2023-03-15T11:20:58;98139.88;;;13.27;38.28
60589;BME280;46421;48.610;9.334;2023-03-15T11:23:29;98139.91;;;11.03;36.71
60589;BME280;46421;48.610;9.334;2023-03-15T11:25:56;98132.16;;;12.38;36.00
60589;BME280;46421;48.610;9.334;2023-03-15T11:28:26;98118.06;;;10.61;39.03
60589;BME280;46421;48.610;9.334;2023-03-15T11:30:54;98122.50;;;9.73;40.08
60589;BME280;46421;48.610;9.334;2023-03-15T11:33:40;98120.19;;;8.36;39.69
60589;BME280;46421;48.610;9.334;2023-03-15T11:36:12;98122.13;;;7.83;41.72
60589;BME280;46421;48.610;9.334;2023-03-15T11:38:43;98108.56;;;8.12;43.67
60589;BME280;46421;48.610;9.334;2023-03-15T11:41:37;98112.31;;;8.10;43.60
60589;BME280;46421;48.610;9.334;2023-03-15T11:46:48;98127.50;;;7.65;44.21
60589;BME280;46421;48.610;9.334;2023-03-15T11:49:28;98123.06;;;7.73;45.16
60589;BME280;46421;48.610;9.334;2023-03-15T11:51:56;98108.47;;;7.96;43.65
60589;BME280;46421;48.610;9.334;2023-03-15T11:54:22;98121.72;;;8.38;43.37
60589;BME280;46421;48.610;9.334;2023-03-15T11:57:04;98121.66;;;7.87;46.30
60589;BME280;46421;48.610;9.334;2023-03-15T11:59:37;98109.97;;;7.98;44.42
60589;BME280;46421;48.610;9.334;2023-03-15T12:09:56;98109.63;;;8.44;46.09
60589;BME280;46421;48.610;9.334;2023-03-15T12:17:50;98110.44;;;9.04;43.32
60589;BME280;46421;48.610;9.334;2023-03-15T12:20:19;98110.09;;;8.74;44.57
60589;BME280;46421;48.610;9.334;2023-03-15T12:22:56;98110.28;;;8.38;44.80
60589;BME280;46421;48.610;9.334;2023-03-15T12:25:34;98103.00;;;7.97;45.22
60589;BME280;46421;48.610;9.334;2023-03-15T12:28:17;98116.03;;;8.25;45.87
60589;BME280;46421;48.610;9.334;2023-03-15T12:30:44;98123.63;;;8.20;44.34
60589;BME280;46421;48.610;9.334;2023-03-15T12:33:19;98116.88;;;7.91;45.54
60589;BME280;46421;48.610;9.334;2023-03-15T12:35:46;98120.97;;;7.85;46.78
60589;BME280;46421;48.610;9.334;2023-03-15T12:38:21;98124.09;;;7.81;47.47
60589;BME280;46421;48.610;9.334;2023-03-15T12:40:53;98119.47;;;8.52;46.43
60589;BME280;46421;48.610;9.334;2023-03-15T12:43:38;98122.22;;;8.93;46.46
60589;BME280;46421;48.610;9.334;2023-03-15T12:46:05;98126.44;;;8.61;45.95
60589;BME280;46421;48.610;9.334;2023-03-15T12:48:31;98110.63;;;8.35;44.98
60589;BME280;46421;48.610;9.334;2023-03-15T12:51:02;98101.81;;;8.34;46.44
60589;BME280;46421;48.610;9.334;2023-03-15T12:56:12;98101.16;;;8.32;45.02
60589;BME280;46421;48.610;9.334;2023-03-15T12:58:43;98101.72;;;8.10;45.46
60589;BME280;46421;48.610;9.334;2023-03-15T13:01:11;98112.72;;;8.23;45.50
60589;BME280;46421;48.610;9.334;2023-03-15T13:03:41;98112.50;;;8.51;48.11
60589;BME280;46421;48.610;9.334;2023-03-15T13:09:00;98119.59;;;8.42;46.92
60589;BME280;46421;48.610;9.334;2023-03-15T13:11:35;98116.50;;;8.12;48.97
60589;BME280;46421;48.610;9.334;2023-03-15T13:14:07;98113.81;;;8.04;48.22
60589;BME280;46421;48.610;9.334;2023-03-15T13:16:44;98121.88;;;8.02;48.69
60589;BME280;46421;48.610;9.334;2023-03-15T13:19:14;98119.66;;;8.16;48.87
60589;BME280;46421;48.610;9.334;2023-03-15T13:24:50;98098.41;;;7.99;49.56
60589;BME280;46421;48.610;9.334;2023-03-15T13:27:41;98107.50;;;7.97;48.53
60589;BME280;46421;48.610;9.334;2023-03-15T13:30:37;98121.56;;;7.71;50.04
60589;BME280;46421;48.610;9.334;2023-03-15T13:33:25;98117.25;;;7.43;51.30
60589;BME280;46421;48.610;9.334;2023-03-15T13:35:59;98114.53;;;7.35;51.42
60589;BME280;46421;48.610;9.334;2023-03-15T13:38:54;98123.50;;;6.98;49.84
60589;BME280;46421;48.610;9.334;2023-03-15T13:43:46;98114.66;;;7.07;51.01
60589;BME280;46421;48.610;9.334;2023-03-15T13:46:13;98114.81;;;6.70;53.28
60589;BME280;46421;48.610;9.334;2023-03-15T13:48:41;98111.47;;;6.86;54.11
60589;BME280;46421;48.610;9.334;2023-03-15T13:53:45;98112.84;;;7.08;53.00
60589;BME280;46421;48.610;9.334;2023-03-15T13:56:15;98116.31;;;7.08;53.54
60589;BME280;46421;48.610;9.334;2023-03-15T13:58:42;98118.06;;;7.00;51.80
60589;BME280;46421;48.610;9.334;2023-03-15T14:01:08;98124.69;;;6.86;54.59
60589;BME280;46421;48.610;9.334;2023-03-15T14:03:37;98117.09;;;6.64;56.12
60589;BME280;46421;48.610;9.334;2023-03-15T14:06:02;98116.41;;;6.35;57.33
60589;BME280;46421;48.610;9.334;2023-03-15T14:08:34;98121.75;;;6.25;59.84
60589;BME280;46421;48.610;9.334;2023-03-15T14:11:10;98127.50;;;6.10;60.04
60589;BME280;46421;48.610;9.334;2023-03-15T14:13:54;98131.19;;;5.90;63.34